Time;durP1;ratioP1;P1;durP2;ratioP2;P2;SDS_P1;SDS_P2;PMS_P1;PMS_P2;Temp;Humidity;BMP_temperature;BMP_pressure;BME280_temperature;BME280_humidity;BME280_pressure;Samples;Min_cycle;Max_cycle;Signal;HPM_P1;HPM_P2
2022/12/02 00:01:47;;;;;;;1999.90;999.90;;;5.30;99.90;;;;;;5048615;28;20464;-69
2022/12/02 00:04:22;;;;;;;1999.90;999.90;;;5.30;99.90;;;;;;5048263;28;20869;-70
2022/12/02 00:06:50;;;;;;;1999.90;999.90;;;5.30;99.90;;;;;;5048829;28;20448;-69
2022/12/02 00:09:29;;;;;;;1999.90;999.90;;;5.20;99.90;;;;;;5047821;28;20956;-69
2022/12/02 00:11:57;;;;;;;1999.90;999.90;;;5.30;99.90;;;;;;5048794;28;20486;-70
2022/12/02 00:14:25;;;;;;;1999.90;999.90;;;5.20;99.90;;;;;;5047937;28;20981;-70
2022/12/02 00:16:54;;;;;;;1999.90;999.90;;;5.20;99.90;;;;;;5048533;28;20454;-70
2022/12/02 00:19:21;;;;;;;1999.90;999.90;;;5.20;99.90;;;;;;5047502;28;20448;-69
2022/12/02 00:21:49;;;;;;;1999.90;999.90;;;5.30;99.90;;;;;;5048737;28;20468;-69
2022/12/02 00:24:16;;;;;;;1999.90;999.90;;;5.40;99.90;;;;;;5048249;28;21021;-70
2022/12/02 00:26:43;;;;;;;1999.90;999.90;;;5.30;99.90;;;;;;5048937;28;20451;-70
2022/12/02 00:29:10;;;;;;;1999.90;999.90;;;5.50;99.90;;;;;;5048347;28;21065;-70
2022/12/02 00:31:37;;;;;;;1999.90;999.90;;;5.50;99.90;;;;;;5048947;28;20468;-70
2022/12/02 00:34:05;;;;;;;1999.90;999.90;;;5.40;99.90;;;;;;5049409;28;20440;-69
2022/12/02 00:36:32;;;;;;;1999.90;999.90;;;5.30;99.90;;;;;;5049198;28;20448;-71
2022/12/02 00:38:59;;;;;;;1999.90;999.90;;;5.30;99.90;;;;;;5049022;28;20448;-68
2022/12/02 00:41:26;;;;;;;1999.90;999.90;;;5.30;99.90;;;;;;5048592;28;20471;-67
2022/12/02 00:46:39;;;;;;;1999.90;999.90;;;5.20;99.90;;;;;;5049208;28;20440;-69
2022/12/02 00:49:08;;;;;;;1999.90;999.90;;;5.20;99.90;;;;;;5048813;28;20820;-71
2022/12/02 00:51:36;;;;;;;1999.90;999.90;;;5.30;99.90;;;;;;5050172;28;20515;-69
2022/12/02 00:54:03;;;;;;;1999.90;999.90;;;5.30;99.90;;;;;;5050363;28;20941;-70
2022/12/02 00:56:31;;;;;;;1999.90;999.90;;;5.30;99.90;;;;;;5050531;28;20448;-70
2022/12/02 00:58:58;;;;;;;1999.90;999.90;;;5.30;99.90;;;;;;5050012;28;20467;-70
2022/12/02 01:01:24;;;;;;;1999.90;999.90;;;5.30;99.90;;;;;;5050820;28;20475;-70
2022/12/02 01:03:51;;;;;;;1999.90;999.90;;;5.20;99.90;;;;;;5050341;28;20483;-69
2022/12/02 01:06:20;;;;;;;1999.90;999.90;;;5.20;99.90;;;;;;5050438;28;20451;-69
2022/12/02 01:08:46;;;;;;;1999.90;999.90;;;5.20;99.90;;;;;;5049675;28;20452;-69
2022/12/02 01:11:13;;;;;;;1999.90;999.90;;;5.20;99.90;;;;;;5049947;28;20482;-69
2022/12/02 01:13:40;;;;;;;1999.90;999.90;;;5.20;99.90;;;;;;5050136;28;20440;-69
2022/12/02 01:16:07;;;;;;;1999.90;999.90;;;5.10;99.90;;;;;;5049926;28;20514;-69
2022/12/02 01:18:34;;;;;;;1999.90;999.90;;;5.10;99.90;;;;;;5049696;28;20444;-69
2022/12/02 01:21:02;;;;;;;1999.90;999.90;;;5.10;99.90;;;;;;5050047;28;20878;-69
2022/12/02 01:23:30;;;;;;;1999.90;999.90;;;5.10;99.90;;;;;;5049768;28;20502;-69
2022/12/02 01:25:56;;;;;;;1999.90;999.90;;;5.00;99.90;;;;;;5049722;28;20448;-70
2022/12/02 01:28:23;;;;;;;1999.90;999.90;;;5.00;99.90;;;;;;5049849;28;20835;-70
2022/12/02 01:30:50;;;;;;;1999.90;999.90;;;5.00;99.90;;;;;;5049669;28;20468;-69
2022/12/02 01:33:17;;;;;;;1999.90;999.90;;;5.00;99.90;;;;;;5049825;28;20531;-70
2022/12/02 01:35:43;;;;;;;1999.90;999.90;;;5.00;99.90;;;;;;5049614;28;20463;-69
2022/12/02 01:38:10;;;;;;;1999.90;999.90;;;5.10;99.90;;;;;;5049688;28;20451;-70
2022/12/02 01:40:38;;;;;;;1999.90;999.90;;;5.10;99.90;;;;;;5049613;28;20467;-70
2022/12/02 01:43:05;;;;;;;1999.90;999.90;;;5.10;99.90;;;;;;5050002;28;20833;-70
2022/12/02 01:45:32;;;;;;;1999.90;999.90;;;5.20;99.90;;;;;;5049608;28;20443;-70
2022/12/02 01:48:00;;;;;;;1999.90;999.90;;;5.20;99.90;;;;;;5049649;28;20820;-70
2022/12/02 01:50:27;;;;;;;1999.90;999.90;;;5.20;99.90;;;;;;5049122;28;21108;-69
2022/12/02 01:52:54;;;;;;;1999.90;999.90;;;5.10;99.90;;;;;;5049527;28;20446;-69
2022/12/02 01:55:23;;;;;;;1999.90;999.90;;;5.10;99.90;;;;;;5049493;28;21144;-69
2022/12/02 01:57:52;;;;;;;1999.90;999.90;;;5.10;99.90;;;;;;5049727;28;20448;-69
2022/12/02 02:00:19;;;;;;;1999.90;999.90;;;5.10;99.90;;;;;;5051059;28;20470;-70
2022/12/02 02:02:46;;;;;;;1999.90;999.90;;;5.20;99.90;;;;;;5053542;28;20466;-70
2022/12/02 02:05:16;;;;;;;1999.90;999.90;;;5.20;99.90;;;;;;5053721;28;20443;-70
2022/12/02 02:07:44;;;;;;;1999.90;999.90;;;5.20;99.90;;;;;;5053285;28;20443;-70
2022/12/02 02:10:11;;;;;;;1999.90;999.90;;;5.20;99.90;;;;;;5053316;28;20456;-70
2022/12/02 02:12:38;;;;;;;1999.90;999.90;;;5.20;99.90;;;;;;5053429;28;20458;-70
2022/12/02 02:15:09;;;;;;;1999.90;999.90;;;5.20;99.90;;;;;;5053359;28;20449;-69
2022/12/02 02:17:36;;;;;;;1999.90;999.90;;;5.20;99.90;;;;;;5053146;28;20452;-70
2022/12/02 02:20:06;;;;;;;1999.90;999.90;;;5.20;99.90;;;;;;5052945;28;20444;-71
2022/12/02 02:22:39;;;;;;;1999.90;999.90;;;5.20;99.90;;;;;;5053028;28;20459;-70
2022/12/02 02:25:10;;;;;;;1999.90;999.90;;;5.20;99.90;;;;;;5053177;28;21011;-70
2022/12/02 02:27:37;;;;;;;1999.90;999.90;;;5.30;99.90;;;;;;5053164;28;20444;-70
2022/12/02 02:30:04;;;;;;;1999.90;999.90;;;5.20;99.90;;;;;;5052839;28;20448;-70
2022/12/02 02:32:31;;;;;;;1999.90;999.90;;;5.30;99.90;;;;;;5052929;28;20471;-71
2022/12/02 02:34:58;;;;;;;1999.90;999.90;;;5.30;99.90;;;;;;5053038;28;20570;-71
2022/12/02 02:37:25;;;;;;;1999.90;999.90;;;5.30;99.90;;;;;;5053272;28;20451;-70
2022/12/02 02:39:52;;;;;;;1999.90;999.90;;;5.30;99.90;;;;;;5052539;28;20454;-69
2022/12/02 02:42:20;;;;;;;1999.90;999.90;;;5.40;99.90;;;;;;5053369;28;20458;-69
2022/12/02 02:44:47;;;;;;;1999.90;999.90;;;5.40;99.90;;;;;;5052624;28;20487;-69
2022/12/02 02:47:15;;;;;;;1999.90;999.90;;;5.40;99.90;;;;;;5052741;28;20444;-69
2022/12/02 02:49:42;;;;;;;1999.90;999.90;;;5.30;99.90;;;;;;5052355;28;20459;-69
2022/12/02 02:52:08;;;;;;;1999.90;999.90;;;5.20;99.90;;;;;;5052600;28;20996;-68
2022/12/02 02:54:35;;;;;;;1999.90;999.90;;;5.20;99.90;;;;;;5052489;28;20448;-69
2022/12/02 02:57:02;;;;;;;1999.90;999.90;;;5.10;99.90;;;;;;5052629;28;20444;-69
2022/12/02 02:59:30;;;;;;;1999.90;999.90;;;5.20;99.90;;;;;;5051874;28;20961;-69
2022/12/02 03:01:57;;;;;;;1999.90;999.90;;;5.10;99.90;;;;;;5052629;28;20463;-69
2022/12/02 03:04:25;;;;;;;1999.90;999.90;;;5.00;99.90;;;;;;5052533;28;20479;-69
2022/12/02 03:06:52;;;;;;;1999.90;999.90;;;5.00;99.90;;;;;;5052479;28;20451;-70
2022/12/02 03:09:21;;;;;;;1999.90;999.90;;;5.00;99.90;;;;;;5052063;28;20448;-70
2022/12/02 03:11:52;;;;;;;1999.90;999.90;;;5.00;99.90;;;;;;5051235;28;20471;-70
2022/12/02 03:14:21;;;;;;;1999.90;999.90;;;4.90;99.90;;;;;;5052139;28;20467;-70
2022/12/02 03:16:50;;;;;;;1999.90;999.90;;;4.80;99.90;;;;;;5052455;28;20448;-70
2022/12/02 03:19:17;;;;;;;1999.90;999.90;;;4.80;99.90;;;;;;5052250;28;20448;-69
2022/12/02 03:21:44;;;;;;;1999.90;999.90;;;4.80;99.90;;;;;;5052422;28;20466;-69
2022/12/02 03:24:11;;;;;;;1999.90;999.90;;;4.80;99.90;;;;;;5052321;28;20857;-69
2022/12/02 03:26:40;;;;;;;1999.90;999.90;;;4.80;99.90;;;;;;5052153;28;20953;-70
2022/12/02 03:29:09;;;;;;;1999.90;999.90;;;4.70;99.90;;;;;;5052272;28;20448;-70
2022/12/02 03:31:36;;;;;;;1999.90;999.90;;;4.70;99.90;;;;;;5052126;28;20491;-69
2022/12/02 03:34:04;;;;;;;1999.90;999.90;;;4.80;99.90;;;;;;5052262;28;20452;-70
2022/12/02 03:36:31;;;;;;;1999.90;999.90;;;4.80;99.90;;;;;;5051910;28;20455;-70
2022/12/02 03:38:58;;;;;;;1999.90;999.90;;;4.80;99.90;;;;;;5051668;28;20914;-70
2022/12/02 03:41:26;;;;;;;1999.90;999.90;;;4.80;99.90;;;;;;5051713;28;20465;-70
2022/12/02 03:43:54;;;;;;;1999.90;999.90;;;4.80;99.90;;;;;;5051605;28;21029;-70
2022/12/02 03:46:21;;;;;;;1999.90;999.90;;;4.80;99.90;;;;;;5052013;28;20467;-70
2022/12/02 03:48:48;;;;;;;1999.90;999.90;;;4.80;99.90;;;;;;5051438;28;20447;-70
2022/12/02 03:51:17;;;;;;;1999.90;999.90;;;4.80;99.90;;;;;;5051679;28;20491;-68
2022/12/02 03:53:45;;;;;;;1999.90;999.90;;;4.90;99.90;;;;;;5051402;28;20444;-70
2022/12/02 03:56:12;;;;;;;1999.90;999.90;;;4.80;99.90;;;;;;5051769;28;20444;-70
2022/12/02 03:58:44;;;;;;;1999.90;999.90;;;4.80;99.90;;;;;;5051176;28;20483;-70
2022/12/02 04:01:11;;;;;;;1999.90;999.90;;;4.80;99.90;;;;;;5051524;28;20463;-70
2022/12/02 04:03:38;;;;;;;1999.90;999.90;;;4.80;99.90;;;;;;5051134;28;20484;-70
2022/12/02 04:06:05;;;;;;;1999.90;999.90;;;4.90;99.90;;;;;;5051388;28;20448;-70
2022/12/02 04:08:33;;;;;;;1999.90;999.90;;;4.90;99.90;;;;;;5050746;28;20451;-69
2022/12/02 04:11:00;;;;;;;1999.90;999.90;;;4.90;99.90;;;;;;5051286;28;20827;-70
2022/12/02 04:13:27;;;;;;;1999.90;999.90;;;4.90;99.90;;;;;;5051153;28;20970;-70
2022/12/02 04:15:54;;;;;;;1999.90;999.90;;;4.90;99.90;;;;;;5051065;28;21196;-70
2022/12/02 04:18:21;;;;;;;1999.90;999.90;;;4.90;99.90;;;;;;5050816;28;20950;-70
2022/12/02 04:20:47;;;;;;;1999.90;999.90;;;4.90;99.90;;;;;;5050733;28;20927;-69
2022/12/02 04:23:14;;;;;;;1999.90;999.90;;;4.90;99.90;;;;;;5050851;28;20474;-70
2022/12/02 04:25:42;;;;;;;1999.90;999.90;;;4.90;99.90;;;;;;5050812;28;20545;-70
2022/12/02 04:28:09;;;;;;;1999.90;999.90;;;5.00;99.90;;;;;;5051045;28;20681;-70
2022/12/02 04:30:36;;;;;;;1999.90;999.90;;;4.90;99.90;;;;;;5050689;28;20468;-70
2022/12/02 04:33:02;;;;;;;1999.90;999.90;;;4.90;99.90;;;;;;5050947;28;20448;-70
2022/12/02 04:35:29;;;;;;;1999.90;999.90;;;4.90;99.90;;;;;;5050359;28;20455;-70
2022/12/02 04:37:56;;;;;;;1999.90;999.90;;;4.80;99.90;;;;;;5051024;28;20452;-70
2022/12/02 04:40:23;;;;;;;1999.90;999.90;;;4.90;99.90;;;;;;5050434;28;20476;-70
2022/12/02 04:42:51;;;;;;;1999.90;999.90;;;4.90;99.90;;;;;;5050549;28;20454;-70
2022/12/02 04:45:18;;;;;;;1999.90;999.90;;;4.90;99.90;;;;;;5050428;28;20487;-70
2022/12/02 04:47:45;;;;;;;1999.90;999.90;;;4.90;99.90;;;;;;5050309;28;20451;-69
2022/12/02 04:50:12;;;;;;;1999.90;999.90;;;4.90;99.90;;;;;;5050037;28;20551;-70
2022/12/02 04:52:39;;;;;;;1999.90;999.90;;;4.80;99.90;;;;;;5050414;28;20462;-70
2022/12/02 04:55:07;;;;;;;1999.90;999.90;;;4.90;99.90;;;;;;5050527;28;20443;-70
2022/12/02 04:57:33;;;;;;;1999.90;999.90;;;4.90;99.90;;;;;;5050024;28;20452;-70
2022/12/02 05:00:02;;;;;;;1999.90;999.90;;;4.90;99.90;;;;;;5049919;28;20448;-70
2022/12/02 05:02:29;;;;;;;1999.90;999.90;;;4.90;99.90;;;;;;5049917;28;20543;-70
2022/12/02 05:04:55;;;;;;;1999.90;999.90;;;4.90;99.90;;;;;;5050448;28;20578;-70
2022/12/02 05:07:22;;;;;;;1999.90;999.90;;;4.90;99.90;;;;;;5050196;28;20467;-70
2022/12/02 05:09:49;;;;;;;1999.90;999.90;;;5.00;99.90;;;;;;5049784;28;20444;-70
2022/12/02 05:12:16;;;;;;;1999.90;999.90;;;5.00;99.90;;;;;;5050177;28;20470;-71
2022/12/02 05:14:42;;;;;;;1999.90;999.90;;;5.00;99.90;;;;;;5050000;28;20455;-69
2022/12/02 05:17:11;;;;;;;1999.90;999.90;;;5.00;99.90;;;;;;5049944;28;20450;-69
2022/12/02 05:19:37;;;;;;;1999.90;999.90;;;5.10;99.90;;;;;;5049667;28;20444;-69
2022/12/02 05:22:04;;;;;;;1999.90;999.90;;;5.10;99.90;;;;;;5049979;28;20468;-69
2022/12/02 05:24:31;;;;;;;1999.90;999.90;;;5.10;99.90;;;;;;5049798;28;20480;-69
2022/12/02 05:26:58;;;;;;;1999.90;999.90;;;5.10;99.90;;;;;;5049610;28;20502;-69
2022/12/02 05:29:25;;;;;;;1999.90;999.90;;;5.10;99.90;;;;;;5049199;28;20448;-69
2022/12/02 05:31:52;;;;;;;1999.90;999.90;;;5.10;99.90;;;;;;5049696;28;20471;-69
2022/12/02 05:34:20;;;;;;;1999.90;999.90;;;5.10;99.90;;;;;;5049320;28;20448;-69
2022/12/02 05:36:47;;;;;;;1999.90;999.90;;;5.00;99.90;;;;;;5049795;28;20977;-69
2022/12/02 05:39:14;;;;;;;1999.90;999.90;;;5.00;99.90;;;;;;5049168;28;20444;-69
2022/12/02 05:41:41;;;;;;;1999.90;999.90;;;5.00;99.90;;;;;;5049624;28;20549;-68
2022/12/02 05:44:19;;;;;;;1999.90;999.90;;;5.10;99.90;;;;;;5049522;28;20491;-69
2022/12/02 05:46:45;;;;;;;1999.90;999.90;;;5.00;99.90;;;;;;5049854;28;20602;-68
2022/12/02 05:49:18;;;;;;;1999.90;999.90;;;4.90;99.90;;;;;;5049329;28;20451;-70
2022/12/02 05:51:46;;;;;;;1999.90;999.90;;;4.90;99.90;;;;;;5049382;28;20503;-72
2022/12/02 05:54:19;;;;;;;1999.90;999.90;;;4.90;99.90;;;;;;5049651;28;20458;-71
2022/12/02 05:56:47;;;;;;;1999.90;999.90;;;4.90;99.90;;;;;;5049412;28;20466;-70
2022/12/02 05:59:16;;;;;;;1999.90;999.90;;;4.90;99.90;;;;;;5048961;28;20444;-70
2022/12/02 06:01:48;;;;;;;1999.90;999.90;;;4.90;99.90;;;;;;5040440;28;20480;-69
2022/12/02 06:04:18;;;;;;;1999.90;999.90;;;4.90;99.90;;;;;;5038456;28;20480;-69
2022/12/02 06:06:46;;;;;;;1999.90;999.90;;;4.80;99.90;;;;;;5039682;28;20525;-71
2022/12/02 06:09:16;;;;;;;1999.90;999.90;;;4.80;99.90;;;;;;5047525;28;21000;-72
2022/12/02 06:11:43;;;;;;;1999.90;999.90;;;4.80;99.90;;;;;;5038323;28;20994;-70
2022/12/02 06:14:16;;;;;;;1999.90;999.90;;;4.70;99.90;;;;;;5039528;28;20930;-71
2022/12/02 06:16:47;;;;;;;1999.90;999.90;;;4.80;99.90;;;;;;5041209;28;20448;-72
2022/12/02 06:19:23;;;;;;;1999.90;999.90;;;4.80;99.90;;;;;;5042630;28;20482;-71
2022/12/02 06:21:52;;;;;;;1999.90;999.90;;;4.80;99.90;;;;;;5047627;28;20997;-71
2022/12/02 06:24:27;;;;;;;1999.90;999.90;;;4.80;99.90;;;;;;5046720;28;20472;-70
2022/12/02 06:26:56;;;;;;;1999.90;999.90;;;4.80;99.90;;;;;;5047446;28;20454;-71
2022/12/02 06:29:23;;;;;;;1999.90;999.90;;;4.80;99.90;;;;;;5048465;28;20448;-70
2022/12/02 06:31:50;;;;;;;1999.90;999.90;;;4.80;99.90;;;;;;5049221;28;20467;-71
2022/12/02 06:34:34;;;;;;;1999.90;999.90;;;4.80;99.90;;;;;;5048968;28;20444;-70
2022/12/02 06:37:12;;;;;;;1999.90;999.90;;;4.80;99.90;;;;;;5049063;28;20444;-71
2022/12/02 06:39:40;;;;;;;1999.90;999.90;;;4.80;99.90;;;;;;5048354;28;20882;-70
2022/12/02 06:42:19;;;;;;;1999.90;999.90;;;4.90;99.90;;;;;;5049061;28;20590;-71
2022/12/02 06:47:50;;;;;;;1999.90;999.90;;;4.90;99.90;;;;;;5051236;28;20516;-71
2022/12/02 06:50:26;;;;;;;1999.90;999.90;;;5.00;99.90;;;;;;5052118;28;20467;-71
2022/12/02 06:53:02;;;;;;;1999.90;999.90;;;5.00;99.90;;;;;;5052845;28;20485;-71
2022/12/02 06:55:33;;;;;;;1999.90;999.90;;;5.00;99.90;;;;;;5052533;28;20454;-71
2022/12/02 06:58:11;;;;;;;1999.90;999.90;;;4.90;99.90;;;;;;5052630;28;20440;-72
2022/12/02 07:00:38;;;;;;;1999.90;999.90;;;5.00;99.90;;;;;;5052429;28;20464;-71
2022/12/02 07:03:06;;;;;;;1999.90;999.90;;;4.90;99.90;;;;;;5052507;28;20533;-72
2022/12/02 07:05:33;;;;;;;1999.90;999.90;;;4.90;99.90;;;;;;5052215;28;20844;-71
2022/12/02 07:08:03;;;;;;;1999.90;999.90;;;4.90;99.90;;;;;;5052579;28;20454;-71
2022/12/02 07:10:31;;;;;;;1999.90;999.90;;;5.00;99.90;;;;;;5051956;28;20472;-72
2022/12/02 07:13:02;;;;;;;1999.90;999.90;;;4.90;99.90;;;;;;5052560;28;20490;-72
2022/12/02 07:15:31;;;;;;;1999.90;999.90;;;4.80;99.90;;;;;;5052468;28;20462;-72
2022/12/02 07:17:59;;;;;;;1999.90;999.90;;;4.80;99.90;;;;;;5052175;28;20455;-72
2022/12/02 07:20:34;;;;;;;1999.90;999.90;;;4.80;99.90;;;;;;5051905;28;20478;-71
2022/12/02 07:23:11;;;;;;;1999.90;999.90;;;4.80;99.90;;;;;;5052130;28;20439;-71
2022/12/02 07:25:42;;;;;;;1999.90;999.90;;;4.80;99.90;;;;;;5052190;28;20479;-71
2022/12/02 07:28:23;;;;;;;1999.90;999.90;;;4.80;99.90;;;;;;5051949;28;20467;-71
2022/12/02 07:30:55;;;;;;;1999.90;999.90;;;4.70;99.90;;;;;;5051792;28;20996;-70
2022/12/02 07:33:22;;;;;;;1999.90;999.90;;;4.70;99.90;;;;;;5052077;28;20490;-71
2022/12/02 07:35:49;;;;;;;1999.90;999.90;;;4.70;99.90;;;;;;5051820;28;20447;-69
2022/12/02 07:38:17;;;;;;;1999.90;999.90;;;4.70;99.90;;;;;;5051475;28;20443;-71
2022/12/02 07:40:44;;;;;;;1999.90;999.90;;;4.80;99.90;;;;;;5051707;28;20974;-71
2022/12/02 07:43:11;;;;;;;1999.90;999.90;;;4.80;99.90;;;;;;5049746;28;20462;-70
2022/12/02 07:45:38;;;;;;;1999.90;999.90;;;4.80;99.90;;;;;;5051908;28;20480;-70
2022/12/02 07:48:05;;;;;;;1999.90;999.90;;;4.80;99.90;;;;;;5051635;28;20444;-72
2022/12/02 07:50:31;;;;;;;1999.90;999.90;;;4.80;99.90;;;;;;5051405;28;20478;-71
2022/12/02 07:52:58;;;;;;;1999.90;999.90;;;4.80;99.90;;;;;;5051382;28;20448;-71
2022/12/02 07:55:27;;;;;;;1999.90;999.90;;;4.80;99.90;;;;;;5051474;28;20531;-71
2022/12/02 07:57:54;;;;;;;1999.90;999.90;;;4.80;99.90;;;;;;5050634;28;20444;-71
2022/12/02 08:00:29;;;;;;;1999.90;999.90;;;4.80;99.90;;;;;;5051091;28;20483;-69
2022/12/02 08:03:03;;;;;;;1999.90;999.90;;;4.90;99.90;;;;;;5051261;28;20470;-71
2022/12/02 08:05:40;;;;;;;1999.90;999.90;;;4.90;99.90;;;;;;5051009;28;20483;-69
2022/12/02 08:08:06;;;;;;;1999.90;999.90;;;5.00;99.90;;;;;;5051028;28;20447;-71
2022/12/02 08:10:35;;;;;;;1999.90;999.90;;;5.00;99.90;;;;;;5051097;28;20476;-71
2022/12/02 08:13:05;;;;;;;1999.90;999.90;;;5.00;99.90;;;;;;5051320;28;20448;-70
2022/12/02 08:15:32;;;;;;;1999.90;999.90;;;5.10;99.90;;;;;;5050966;28;20560;-70
2022/12/02 08:17:59;;;;;;;1999.90;999.90;;;5.00;99.90;;;;;;5050923;28;20444;-71
2022/12/02 08:20:31;;;;;;;1999.90;999.90;;;5.10;99.90;;;;;;5050293;28;20472;-69
2022/12/02 08:22:58;;;;;;;1999.90;999.90;;;5.10;99.90;;;;;;5051049;28;20444;-70
2022/12/02 08:25:34;;;;;;;1999.90;999.90;;;5.00;99.90;;;;;;5050822;28;21028;-70
2022/12/02 08:28:04;;;;;;;1999.90;999.90;;;5.10;99.90;;;;;;5050959;28;20849;-70
2022/12/02 08:30:31;;;;;;;1999.90;999.90;;;5.10;99.90;;;;;;5050696;28;20471;-71
2022/12/02 08:32:58;;;;;;;1999.90;999.90;;;5.10;99.90;;;;;;5050836;28;20456;-70
2022/12/02 08:35:24;;;;;;;1999.90;999.90;;;5.00;99.90;;;;;;5050625;28;20448;-70
2022/12/02 08:37:51;;;;;;;1999.90;999.90;;;5.00;99.90;;;;;;5051065;28;20444;-71
2022/12/02 08:40:18;;;;;;;1999.90;999.90;;;5.00;99.90;;;;;;5050455;28;20471;-70
2022/12/02 08:42:46;;;;;;;1999.90;999.90;;;5.00;99.90;;;;;;5051081;28;20439;-70
2022/12/02 08:45:17;;;;;;;1999.90;999.90;;;5.10;99.90;;;;;;5050875;28;20559;-71
2022/12/02 08:47:43;;;;;;;1999.90;999.90;;;5.10;99.90;;;;;;5050847;28;20444;-71
2022/12/02 08:50:11;;;;;;;1999.90;999.90;;;5.10;99.90;;;;;;5050509;28;20463;-71
2022/12/02 08:52:37;;;;;;;1999.90;999.90;;;5.00;99.90;;;;;;5050625;28;20440;-70
2022/12/02 08:55:05;;;;;;;1999.90;999.90;;;4.90;99.90;;;;;;5050658;28;20432;-71
2022/12/02 08:57:32;;;;;;;1999.90;999.90;;;4.80;99.90;;;;;;5050624;28;20444;-71
2022/12/02 08:59:59;;;;;;;1999.90;999.90;;;4.90;99.90;;;;;;5050025;28;20443;-70
2022/12/02 09:02:27;;;;;;;1999.90;999.90;;;4.90;99.90;;;;;;5050292;28;20451;-70
2022/12/02 09:04:54;;;;;;;1999.90;999.90;;;4.90;99.90;;;;;;5050206;28;20452;-70
2022/12/02 09:07:20;;;;;;;1999.90;999.90;;;4.90;99.90;;;;;;5050267;28;20450;-71
2022/12/02 09:09:47;;;;;;;1999.90;999.90;;;4.80;99.90;;;;;;5049283;28;20518;-71
2022/12/02 09:12:14;;;;;;;1999.90;999.90;;;4.80;99.90;;;;;;5050034;28;20448;-70
2022/12/02 09:14:41;;;;;;;1999.90;999.90;;;4.80;99.90;;;;;;5050246;28;20461;-71
2022/12/02 09:17:07;;;;;;;1999.90;999.90;;;4.80;99.90;;;;;;5049854;28;20454;-69
2022/12/02 09:19:35;;;;;;;1999.90;999.90;;;4.90;99.90;;;;;;5049539;28;20456;-69
2022/12/02 09:22:02;;;;;;;1999.90;999.90;;;4.90;99.90;;;;;;5049812;28;20468;-70
2022/12/02 09:24:29;;;;;;;1999.90;999.90;;;4.80;99.90;;;;;;5049982;28;20448;-70
2022/12/02 09:26:56;;;;;;;1999.90;999.90;;;4.80;99.90;;;;;;5049807;28;20475;-69
2022/12/02 09:29:23;;;;;;;1999.90;999.90;;;4.80;99.90;;;;;;5049411;28;20964;-70
2022/12/02 09:31:49;;;;;;;1999.90;999.90;;;4.80;99.90;;;;;;5049702;28;20463;-70
2022/12/02 09:34:16;;;;;;;1999.90;999.90;;;4.80;99.90;;;;;;5046909;28;20463;-69
2022/12/02 09:36:45;;;;;;;1999.90;999.90;;;4.80;99.90;;;;;;5041544;28;20465;-69
2022/12/02 09:39:11;;;;;;;1999.90;999.90;;;4.80;99.90;;;;;;5039323;28;20447;-69
2022/12/02 09:41:38;;;;;;;1999.90;999.90;;;4.80;99.90;;;;;;5052821;28;20474;-69
2022/12/02 09:44:06;;;;;;;1999.90;999.90;;;4.80;99.90;;;;;;5033314;28;20444;-69
2022/12/02 09:46:32;;;;;;;1999.90;999.90;;;4.90;99.90;;;;;;5042271;28;20503;-70
2022/12/02 09:49:00;;;;;;;1999.90;999.90;;;5.00;99.90;;;;;;5040991;28;20454;-69
2022/12/02 09:51:27;;;;;;;1999.90;999.90;;;5.10;99.90;;;;;;5049434;28;20486;-69
2022/12/02 09:53:55;;;;;;;1999.90;999.90;;;5.10;99.90;;;;;;5049298;28;20454;-70
2022/12/02 09:56:22;;;;;;;1999.90;999.90;;;5.10;99.90;;;;;;5043043;28;20452;-69
2022/12/02 09:58:51;;;;;;;1999.90;999.90;;;5.10;99.90;;;;;;5048272;28;20841;-69
2022/12/02 10:01:18;;;;;;;1999.90;999.90;;;5.10;99.90;;;;;;5045245;28;20464;-69
2022/12/02 10:03:47;;;;;;;1999.90;999.90;;;5.10;99.90;;;;;;5047057;28;20455;-70
2022/12/02 10:06:18;;;;;;;1999.90;999.90;;;5.20;99.90;;;;;;5037865;28;21052;-70
2022/12/02 10:08:45;;;;;;;1999.90;999.90;;;5.00;99.90;;;;;;5038511;28;20444;-69
2022/12/02 10:11:21;;;;;;;1999.90;999.90;;;5.00;99.90;;;;;;5039995;28;20459;-70
2022/12/02 10:13:48;;;;;;;1999.90;999.90;;;4.90;99.90;;;;;;5041720;28;20474;-70
2022/12/02 10:16:16;;;;;;;1999.90;999.90;;;4.90;99.90;;;;;;5048718;28;20443;-70
2022/12/02 10:18:43;;;;;;;1999.90;999.90;;;5.00;99.90;;;;;;5048894;28;20813;-69
2022/12/02 10:21:10;;;;;;;1999.90;999.90;;;4.90;99.90;;;;;;5050419;28;20464;-70
2022/12/02 10:23:53;;;;;;;1999.90;999.90;;;5.00;99.90;;;;;;5053142;28;20447;-70
2022/12/02 10:26:21;;;;;;;1999.90;999.90;;;5.00;99.90;;;;;;5036844;28;20483;-71
2022/12/02 10:29:04;;;;;;;1999.90;999.90;;;5.00;99.90;;;;;;5052666;28;20440;-70
2022/12/02 10:31:31;;;;;;;1999.90;999.90;;;5.00;99.90;;;;;;5049944;28;20486;-70
2022/12/02 10:34:00;;;;;;;1999.90;999.90;;;5.00;99.90;;;;;;5052615;28;20447;-70
2022/12/02 10:36:32;;;;;;;1999.90;999.90;;;5.00;99.90;;;;;;5052544;28;21114;-71
2022/12/02 10:39:27;;;;;;;1999.90;999.90;;;5.00;99.90;;;;;;5052176;28;21014;-71
2022/12/02 10:42:20;;;;;;;1999.90;999.90;;;4.90;99.90;;;;;;5046880;28;20544;-70
2022/12/02 10:45:07;;;;;;;1999.90;999.90;;;4.90;99.90;;;;;;5038855;28;20454;-71
2022/12/02 10:47:34;;;;;;;1999.90;999.90;;;4.80;99.90;;;;;;5052606;28;20440;-70
2022/12/02 10:50:01;;;;;;;1999.90;999.90;;;4.80;99.90;;;;;;5052199;28;20446;-71
2022/12/02 10:52:31;;;;;;;1999.90;999.90;;;4.80;99.90;;;;;;5052199;28;20440;-70
2022/12/02 10:54:59;;;;;;;1999.90;999.90;;;4.90;99.90;;;;;;5052377;28;20446;-70
2022/12/02 10:57:29;;;;;;;1999.90;999.90;;;4.90;99.90;;;;;;5052390;28;20474;-70
2022/12/02 10:59:58;;;;;;;1999.90;999.90;;;4.90;99.90;;;;;;5051891;28;20440;-70
2022/12/02 11:02:35;;;;;;;1999.90;999.90;;;4.90;99.90;;;;;;5051895;28;20436;-71
2022/12/02 11:05:13;;;;;;;1999.90;999.90;;;4.90;99.90;;;;;;5050284;28;20435;-70
2022/12/02 11:07:40;;;;;;;1999.90;999.90;;;4.90;99.90;;;;;;5050818;28;20443;-70
2022/12/02 11:10:19;;;;;;;1999.90;999.90;;;4.80;99.90;;;;;;5049869;28;21001;-70
2022/12/02 11:13:02;;;;;;;1999.90;999.90;;;4.80;99.90;;;;;;5050573;28;20443;-70
2022/12/02 11:15:40;;;;;;;1999.90;999.90;;;4.80;99.90;;;;;;5050308;28;20482;-70
2022/12/02 11:18:09;;;;;;;1999.90;999.90;;;4.90;99.90;;;;;;5050238;28;21161;-70
2022/12/02 11:20:44;;;;;;;1999.90;999.90;;;4.90;99.90;;;;;;5051997;28;21067;-70
2022/12/02 11:23:23;;;;;;;1999.90;999.90;;;5.00;99.90;;;;;;5052044;28;20447;-70
2022/12/02 11:26:01;;;;;;;1999.90;999.90;;;5.00;99.90;;;;;;5042021;28;20482;-70
2022/12/02 11:28:52;;;;;;;1999.90;999.90;;;5.00;99.90;;;;;;5036951;28;20450;-70
2022/12/02 11:31:26;;;;;;;1999.90;999.90;;;4.90;99.90;;;;;;5046302;28;20467;-70
2022/12/02 11:34:18;;;;;;;1999.90;999.90;;;4.80;99.90;;;;;;5050016;28;20512;-70
2022/12/02 11:36:45;;;;;;;1999.90;999.90;;;4.80;99.90;;;;;;5028126;28;20441;-70
2022/12/02 11:39:12;;;;;;;1999.90;999.90;;;4.70;99.90;;;;;;5049579;28;20968;-70
2022/12/02 11:42:20;;;;;;;1999.90;999.90;;;4.70;99.90;;;;;;5041083;28;20562;-70
2022/12/02 11:44:50;;;;;;;1999.90;999.90;;;4.70;99.90;;;;;;5040051;28;20440;-71
2022/12/02 11:47:29;;;;;;;1999.90;999.90;;;4.70;99.90;;;;;;5052372;28;20484;-71
2022/12/02 11:50:12;;;;;;;1999.90;999.90;;;4.70;99.90;;;;;;5045467;28;20476;-71
2022/12/02 11:52:41;;;;;;;1999.90;999.90;;;4.70;99.90;;;;;;5046733;28;20448;-71
2022/12/02 11:55:15;;;;;;;1999.90;999.90;;;4.70;99.90;;;;;;5048175;28;20460;-71
2022/12/02 11:57:46;;;;;;;1999.90;999.90;;;4.70;99.90;;;;;;5052354;28;20524;-70
2022/12/02 12:00:24;;;;;;;1999.90;999.90;;;4.70;99.90;;;;;;5048571;28;20479;-70
2022/12/02 12:03:11;;;;;;;1999.90;999.90;;;4.70;99.90;;;;;;5039582;28;20439;-71
2022/12/02 12:05:39;;;;;;;1999.90;999.90;;;4.70;99.90;;;;;;5051641;28;20502;-70
2022/12/02 12:08:06;;;;;;;1999.90;999.90;;;4.70;99.90;;;;;;5051846;28;20433;-70
2022/12/02 12:10:34;;;;;;;1999.90;999.90;;;4.70;99.90;;;;;;5042680;28;20513;-70
2022/12/02 12:13:21;;;;;;;1999.90;999.90;;;4.70;99.90;;;;;;5047580;28;20801;-70
2022/12/02 12:15:52;;;;;;;1999.90;999.90;;;4.80;99.90;;;;;;5049609;28;20452;-70
2022/12/02 12:18:42;;;;;;;1999.90;999.90;;;4.80;99.90;;;;;;5044465;28;20436;-70
2022/12/02 12:21:10;;;;;;;1999.90;999.90;;;4.80;99.90;;;;;;5045306;28;20513;-70
2022/12/02 12:23:38;;;;;;;1999.90;999.90;;;4.70;99.90;;;;;;5047514;28;20449;-70
2022/12/02 12:26:06;;;;;;;1999.90;999.90;;;4.70;99.90;;;;;;5045512;28;20491;-70